OAL114 LGAV-LIRN
Flight info
| Callsign | OAL114 |
|---|---|
| Flight time | 1h 35m |
| Altitude | 38000 |
| Route | KOR UL53 KRK UL995 TIGRA DCT KAPPO DCT EKTOL |
| Aircraft | B737/M-VGDW/C |
Departure
| Time | 2026-05-04 08:33 |
|---|---|
| Airport | Athens Eleftherios Venizelos International Airport (LGAV) |
Arrival
| Time | 2026-05-04 10:08 |
|---|---|
| Airport | Naples International Airport (LIRN) |
| Time | Latitude | Longitude | Altitude | Speed | Heading |
|---|---|---|---|---|---|
| 2026-05-04 08:10 | 37.93834 | 23.95061 | 316 ft | 0 kts | 308° |
| 2026-05-04 08:21 | 37.93827 | 23.95072 | 316 ft | 2 kts | 308° |
| 2026-05-04 08:22 | 37.93820 | 23.95085 | 316 ft | 3 kts | 308° |
| 2026-05-04 08:22 | 37.93807 | 23.95105 | 316 ft | 3 kts | 308° |
| 2026-05-04 08:24 | 37.93675 | 23.95185 | 316 ft | 11 kts | 126° |
| 2026-05-04 08:24 | 37.93613 | 23.95235 | 316 ft | 11 kts | 188° |
| 2026-05-04 08:24 | 37.93545 | 23.95183 | 316 ft | 12 kts | 217° |
| 2026-05-04 08:24 | 37.93473 | 23.95115 | 316 ft | 13 kts | 217° |
| 2026-05-04 08:25 | 37.93396 | 23.95040 | 316 ft | 15 kts | 217° |
| 2026-05-04 08:25 | 37.93311 | 23.94959 | 316 ft | 16 kts | 217° |
| 2026-05-04 08:25 | 37.93220 | 23.94872 | 316 ft | 17 kts | 217° |
| 2026-05-04 08:25 | 37.93127 | 23.94783 | 316 ft | 17 kts | 217° |
| 2026-05-04 08:26 | 37.93037 | 23.94699 | 316 ft | 16 kts | 216° |
| 2026-05-04 08:27 | 37.92543 | 23.94313 | 316 ft | 7 kts | 127° |
| 2026-05-04 08:28 | 37.92535 | 23.94327 | 316 ft | 0 kts | 126° |
| 2026-05-04 08:31 | 37.94624 | 23.96513 | 593 ft | 147 kts | 37° |
| 2026-05-04 08:33 | 38.01231 | 24.02832 | 3063 ft | 224 kts | 34° |
| 2026-05-04 08:33 | 38.02517 | 24.04068 | 3404 ft | 237 kts | 34° |
| 2026-05-04 08:35 | 38.09345 | 24.15115 | 9182 ft | 288 kts | 102° |
| 2026-05-04 08:35 | 38.08367 | 24.17403 | 9981 ft | 304 kts | 125° |
| 2026-05-04 08:35 | 38.06712 | 24.19151 | 10739 ft | 318 kts | 148° |
| 2026-05-04 08:35 | 38.04573 | 24.20058 | 11229 ft | 337 kts | 173° |
| 2026-05-04 08:37 | 37.96458 | 24.06633 | 15387 ft | 364 kts | 251° |
| 2026-05-04 08:37 | 37.95488 | 24.03648 | 16251 ft | 368 kts | 252° |
| 2026-05-04 08:37 | 37.94565 | 24.00611 | 17098 ft | 371 kts | 253° |
| 2026-05-04 08:38 | 37.93677 | 23.97519 | 17919 ft | 375 kts | 254° |
| 2026-05-04 08:38 | 37.92791 | 23.94377 | 18712 ft | 379 kts | 254° |
| 2026-05-04 08:38 | 37.91900 | 23.91215 | 19461 ft | 384 kts | 254° |
| 2026-05-04 08:40 | 37.89473 | 23.67609 | 24129 ft | 399 kts | 278° |
| 2026-05-04 08:40 | 37.89657 | 23.64090 | 24704 ft | 403 kts | 278° |
| 2026-05-04 08:40 | 37.89836 | 23.60538 | 25280 ft | 405 kts | 278° |
| 2026-05-04 08:41 | 37.90011 | 23.56964 | 25843 ft | 408 kts | 278° |
| 2026-05-04 08:41 | 37.90186 | 23.53360 | 26359 ft | 411 kts | 278° |
| 2026-05-04 08:41 | 37.90359 | 23.49739 | 26886 ft | 413 kts | 278° |
| 2026-05-04 08:41 | 37.90532 | 23.46090 | 27380 ft | 415 kts | 279° |
| 2026-05-04 08:42 | 37.90705 | 23.42423 | 27854 ft | 418 kts | 279° |
| 2026-05-04 08:42 | 37.90875 | 23.38796 | 28320 ft | 419 kts | 279° |
| 2026-05-04 08:42 | 37.91061 | 23.35097 | 28752 ft | 421 kts | 280° |
| 2026-05-04 08:42 | 37.91282 | 23.31387 | 29166 ft | 423 kts | 280° |
| 2026-05-04 08:43 | 37.91480 | 23.27656 | 29615 ft | 424 kts | 280° |
| 2026-05-04 08:43 | 37.91662 | 23.23908 | 29997 ft | 427 kts | 280° |
| 2026-05-04 08:43 | 37.91835 | 23.20143 | 30381 ft | 428 kts | 280° |
| 2026-05-04 08:43 | 37.92004 | 23.16386 | 30868 ft | 427 kts | 280° |
| 2026-05-04 08:44 | 37.92169 | 23.12643 | 31406 ft | 424 kts | 280° |
| 2026-05-04 08:44 | 37.92330 | 23.08970 | 31885 ft | 423 kts | 280° |
| 2026-05-04 08:46 | 37.99306 | 22.85946 | 34634 ft | 399 kts | 302° |
| 2026-05-04 08:46 | 38.00616 | 22.82839 | 34944 ft | 400 kts | 302° |
| 2026-05-04 08:46 | 38.01931 | 22.79714 | 35134 ft | 403 kts | 302° |
| 2026-05-04 08:46 | 38.03259 | 22.76559 | 35312 ft | 406 kts | 302° |
| 2026-05-04 08:47 | 38.04586 | 22.73407 | 35700 ft | 404 kts | 302° |
| 2026-05-04 08:47 | 38.05926 | 22.70266 | 36007 ft | 403 kts | 304° |
| 2026-05-04 08:47 | 38.07418 | 22.67255 | 36283 ft | 402 kts | 307° |
| 2026-05-04 08:47 | 38.09009 | 22.64335 | 36553 ft | 402 kts | 308° |
| 2026-05-04 08:48 | 38.10630 | 22.61440 | 36839 ft | 402 kts | 308° |
| 2026-05-04 08:48 | 38.12240 | 22.58533 | 37106 ft | 402 kts | 308° |
| 2026-05-04 08:48 | 38.13833 | 22.55667 | 37356 ft | 402 kts | 308° |
| 2026-05-04 08:48 | 38.15447 | 22.52767 | 37618 ft | 402 kts | 308° |
| 2026-05-04 08:49 | 38.17050 | 22.49852 | 37852 ft | 403 kts | 307° |
| 2026-05-04 08:50 | 38.26642 | 22.32183 | 38201 ft | 403 kts | 307° |
| 2026-05-04 08:50 | 38.28217 | 22.29272 | 38201 ft | 403 kts | 307° |
| 2026-05-04 08:51 | 38.31398 | 22.23391 | 38201 ft | 403 kts | 307° |
| 2026-05-04 08:51 | 38.34589 | 22.17502 | 38201 ft | 403 kts | 307° |
| 2026-05-04 08:52 | 38.37789 | 22.11639 | 38200 ft | 403 kts | 307° |
| 2026-05-04 08:52 | 38.40950 | 22.05773 | 38200 ft | 403 kts | 307° |
| 2026-05-04 08:54 | 38.53583 | 21.82185 | 38200 ft | 402 kts | 307° |
| 2026-05-04 08:55 | 38.56756 | 21.76290 | 38201 ft | 402 kts | 307° |
| 2026-05-04 08:55 | 38.59886 | 21.70403 | 38201 ft | 403 kts | 307° |
| 2026-05-04 09:01 | 38.92834 | 21.07729 | 38201 ft | 404 kts | 307° |
| 2026-05-04 09:01 | 38.95952 | 21.01717 | 38201 ft | 404 kts | 307° |
| 2026-05-04 09:02 | 38.99069 | 20.95702 | 38200 ft | 404 kts | 307° |
| 2026-05-04 09:02 | 39.02186 | 20.89685 | 38201 ft | 404 kts | 307° |
| 2026-05-04 09:03 | 39.05292 | 20.83667 | 38201 ft | 404 kts | 307° |
| 2026-05-04 09:03 | 39.08396 | 20.77646 | 38197 ft | 404 kts | 307° |
| 2026-05-04 09:04 | 39.11538 | 20.71649 | 38196 ft | 404 kts | 307° |
| 2026-05-04 09:04 | 39.14626 | 20.65658 | 38195 ft | 404 kts | 307° |
| 2026-05-04 09:05 | 39.17717 | 20.59621 | 38194 ft | 404 kts | 307° |
| 2026-05-04 09:05 | 39.20806 | 20.53574 | 38194 ft | 404 kts | 306° |
| 2026-05-04 09:06 | 39.23893 | 20.47524 | 38191 ft | 403 kts | 307° |
| 2026-05-04 09:08 | 39.36247 | 20.23389 | 38182 ft | 403 kts | 307° |
| 2026-05-04 09:08 | 39.39326 | 20.17317 | 38180 ft | 403 kts | 307° |
| 2026-05-04 09:09 | 39.42405 | 20.11242 | 38177 ft | 403 kts | 307° |
| 2026-05-04 09:09 | 39.45518 | 20.05214 | 38175 ft | 402 kts | 309° |
| 2026-05-04 09:10 | 39.48882 | 19.99440 | 38173 ft | 402 kts | 310° |
| 2026-05-04 09:10 | 39.51684 | 19.94653 | 38172 ft | 401 kts | 310° |
| 2026-05-04 09:11 | 39.55033 | 19.88873 | 38171 ft | 401 kts | 310° |
| 2026-05-04 09:11 | 39.58380 | 19.83065 | 38171 ft | 401 kts | 309° |
| 2026-05-04 09:12 | 39.61693 | 19.77295 | 38172 ft | 401 kts | 309° |
| 2026-05-04 09:14 | 39.75062 | 19.54083 | 38173 ft | 401 kts | 309° |
| 2026-05-04 09:14 | 39.78390 | 19.48257 | 38173 ft | 401 kts | 309° |
| 2026-05-04 09:15 | 39.81691 | 19.42468 | 38173 ft | 399 kts | 309° |
| 2026-05-04 09:15 | 39.84986 | 19.36672 | 38174 ft | 397 kts | 309° |
| 2026-05-04 09:17 | 39.99743 | 19.10613 | 38176 ft | 397 kts | 308° |
| 2026-05-04 09:18 | 40.03027 | 19.04764 | 38177 ft | 400 kts | 308° |
| 2026-05-04 09:18 | 40.06291 | 18.98946 | 38177 ft | 399 kts | 308° |
| 2026-05-04 09:19 | 40.09583 | 18.93103 | 38177 ft | 400 kts | 308° |
| 2026-05-04 09:19 | 40.12878 | 18.87231 | 38176 ft | 400 kts | 308° |
| 2026-05-04 09:20 | 40.16160 | 18.81365 | 38176 ft | 400 kts | 308° |
| 2026-05-04 09:20 | 40.19420 | 18.75528 | 38175 ft | 399 kts | 308° |
| 2026-05-04 09:21 | 40.22695 | 18.69652 | 38174 ft | 399 kts | 308° |
| 2026-05-04 09:21 | 40.25963 | 18.63782 | 38173 ft | 399 kts | 308° |
| 2026-05-04 09:22 | 40.29264 | 18.57939 | 38172 ft | 399 kts | 308° |
| 2026-05-04 09:22 | 40.32541 | 18.52081 | 38172 ft | 399 kts | 308° |
| 2026-05-04 09:23 | 40.35811 | 18.46205 | 38172 ft | 399 kts | 307° |
| 2026-05-04 09:23 | 40.39059 | 18.40350 | 38172 ft | 399 kts | 307° |
| 2026-05-04 09:25 | 40.52075 | 18.16808 | 38171 ft | 398 kts | 307° |
| 2026-05-04 09:26 | 40.55315 | 18.10887 | 38171 ft | 398 kts | 307° |
| 2026-05-04 09:26 | 40.58551 | 18.04964 | 38171 ft | 400 kts | 306° |
| 2026-05-04 09:27 | 40.61117 | 17.98439 | 38170 ft | 404 kts | 292° |
| 2026-05-04 09:27 | 40.62707 | 17.91389 | 38171 ft | 405 kts | 288° |
| 2026-05-04 09:28 | 40.64086 | 17.84178 | 38171 ft | 406 kts | 287° |
| 2026-05-04 09:28 | 40.65437 | 17.76950 | 38171 ft | 406 kts | 287° |
| 2026-05-04 09:29 | 40.66775 | 17.69719 | 38171 ft | 407 kts | 287° |
| 2026-05-04 09:29 | 40.68107 | 17.62469 | 38171 ft | 406 kts | 287° |
| 2026-05-04 09:30 | 40.69433 | 17.55262 | 38171 ft | 407 kts | 287° |
| 2026-05-04 09:30 | 40.70812 | 17.48030 | 38171 ft | 407 kts | 287° |
| 2026-05-04 09:31 | 40.72166 | 17.40774 | 38171 ft | 408 kts | 287° |
| 2026-05-04 09:31 | 40.73505 | 17.33512 | 38172 ft | 408 kts | 286° |
| 2026-05-04 09:32 | 40.74836 | 17.26231 | 38173 ft | 408 kts | 286° |
| 2026-05-04 09:34 | 40.80103 | 16.97074 | 38171 ft | 409 kts | 286° |
| 2026-05-04 09:34 | 40.81413 | 16.89749 | 38171 ft | 410 kts | 285° |
| 2026-05-04 09:35 | 40.82708 | 16.82479 | 38171 ft | 410 kts | 285° |
| 2026-05-04 09:35 | 40.84013 | 16.75122 | 38172 ft | 410 kts | 285° |
| 2026-05-04 09:37 | 40.89174 | 16.45739 | 37845 ft | 413 kts | 285° |
| 2026-05-04 09:38 | 40.89815 | 16.42053 | 37317 ft | 410 kts | 285° |
| 2026-05-04 09:38 | 40.90454 | 16.38378 | 36599 ft | 411 kts | 285° |
| 2026-05-04 09:38 | 40.91087 | 16.34723 | 35887 ft | 412 kts | 284° |
| 2026-05-04 09:38 | 40.91728 | 16.31020 | 35035 ft | 415 kts | 284° |
| 2026-05-04 09:39 | 40.92370 | 16.27299 | 34266 ft | 415 kts | 284° |
| 2026-05-04 09:39 | 40.93010 | 16.23586 | 33680 ft | 411 kts | 284° |
| 2026-05-04 09:39 | 40.93641 | 16.19915 | 33128 ft | 407 kts | 284° |
| 2026-05-04 09:39 | 40.94265 | 16.16278 | 32584 ft | 403 kts | 284° |
| 2026-05-04 09:40 | 40.94880 | 16.12686 | 32049 ft | 399 kts | 284° |
| 2026-05-04 09:40 | 40.95491 | 16.09114 | 31520 ft | 395 kts | 285° |
| 2026-05-04 09:40 | 40.96093 | 16.05579 | 30997 ft | 392 kts | 285° |
| 2026-05-04 09:40 | 40.96691 | 16.02066 | 30480 ft | 388 kts | 285° |
| 2026-05-04 09:41 | 40.97282 | 15.98588 | 29966 ft | 385 kts | 285° |
| 2026-05-04 09:42 | 41.01259 | 15.75005 | 26316 ft | 373 kts | 284° |
| 2026-05-04 09:43 | 41.01824 | 15.71632 | 25785 ft | 377 kts | 284° |
| 2026-05-04 09:43 | 41.02391 | 15.68237 | 25248 ft | 378 kts | 284° |
| 2026-05-04 09:43 | 41.02957 | 15.64837 | 24711 ft | 376 kts | 284° |
| 2026-05-04 09:43 | 41.03517 | 15.61473 | 24180 ft | 373 kts | 284° |
| 2026-05-04 09:44 | 41.04078 | 15.58135 | 23662 ft | 370 kts | 284° |
| 2026-05-04 09:44 | 41.04644 | 15.54865 | 23153 ft | 368 kts | 284° |
| 2026-05-04 09:44 | 41.05199 | 15.51568 | 22639 ft | 365 kts | 284° |
| 2026-05-04 09:46 | 41.08875 | 15.29013 | 19118 ft | 350 kts | 283° |
| 2026-05-04 09:46 | 41.09383 | 15.25866 | 18620 ft | 348 kts | 283° |
| 2026-05-04 09:46 | 41.09882 | 15.22780 | 18129 ft | 346 kts | 283° |
| 2026-05-04 09:47 | 41.10219 | 15.19623 | 17624 ft | 345 kts | 270° |
| 2026-05-04 09:47 | 41.09805 | 15.16515 | 17194 ft | 342 kts | 250° |
| 2026-05-04 09:49 | 40.99250 | 14.99437 | 15641 ft | 342 kts | 230° |
| 2026-05-04 09:49 | 40.97695 | 14.97045 | 15426 ft | 341 kts | 230° |
| 2026-05-04 09:49 | 40.96144 | 14.94669 | 15213 ft | 340 kts | 230° |
| 2026-05-04 09:51 | 40.87144 | 14.80368 | 13947 ft | 334 kts | 238° |
| 2026-05-04 09:51 | 40.85960 | 14.77786 | 13741 ft | 331 kts | 240° |
| 2026-05-04 09:51 | 40.84782 | 14.75221 | 13535 ft | 321 kts | 239° |
| 2026-05-04 09:51 | 40.83627 | 14.72752 | 13337 ft | 310 kts | 239° |
| 2026-05-04 09:52 | 40.82604 | 14.70301 | 13131 ft | 296 kts | 250° |
| 2026-05-04 09:52 | 40.82297 | 14.67741 | 12951 ft | 275 kts | 274° |
| 2026-05-04 09:52 | 40.82813 | 14.65384 | 12795 ft | 266 kts | 298° |
| 2026-05-04 09:52 | 40.83988 | 14.63511 | 12469 ft | 265 kts | 317° |
| 2026-05-04 09:53 | 40.85425 | 14.62012 | 12291 ft | 262 kts | 324° |
| 2026-05-04 09:53 | 40.86950 | 14.60685 | 12121 ft | 263 kts | 328° |
| 2026-05-04 09:53 | 40.88601 | 14.59754 | 11943 ft | 263 kts | 348° |
| 2026-05-04 09:53 | 40.90413 | 14.59838 | 11790 ft | 264 kts | 14° |
| 2026-05-04 09:54 | 40.92038 | 14.60946 | 11511 ft | 264 kts | 40° |
| 2026-05-04 09:54 | 40.93143 | 14.62862 | 11346 ft | 263 kts | 62° |
| 2026-05-04 09:54 | 40.93898 | 14.65070 | 11183 ft | 263 kts | 65° |
| 2026-05-04 09:54 | 40.94742 | 14.67215 | 11013 ft | 261 kts | 60° |
| 2026-05-04 09:55 | 40.95680 | 14.69270 | 10847 ft | 261 kts | 58° |
| 2026-05-04 09:55 | 40.96640 | 14.71304 | 10683 ft | 260 kts | 58° |
| 2026-05-04 09:55 | 40.97599 | 14.73338 | 10519 ft | 260 kts | 58° |
| 2026-05-04 09:55 | 40.98553 | 14.75364 | 10357 ft | 259 kts | 58° |
| 2026-05-04 09:56 | 40.99500 | 14.77387 | 10195 ft | 259 kts | 58° |
| 2026-05-04 09:56 | 41.00451 | 14.79425 | 9891 ft | 261 kts | 58° |
| 2026-05-04 09:56 | 41.01397 | 14.81454 | 9648 ft | 257 kts | 58° |
| 2026-05-04 09:56 | 41.02329 | 14.83456 | 9483 ft | 255 kts | 58° |
| 2026-05-04 09:57 | 41.03349 | 14.85372 | 9311 ft | 255 kts | 45° |
| 2026-05-04 09:57 | 41.04797 | 14.86586 | 9153 ft | 246 kts | 18° |
| 2026-05-04 09:57 | 41.06470 | 14.86786 | 8907 ft | 242 kts | 352° |
| 2026-05-04 09:57 | 41.08020 | 14.85960 | 8748 ft | 241 kts | 327° |
| 2026-05-04 09:58 | 41.09369 | 14.84640 | 8600 ft | 241 kts | 324° |
| 2026-05-04 09:58 | 41.10276 | 14.83795 | 8496 ft | 240 kts | 326° |
| 2026-05-04 09:58 | 41.11515 | 14.82325 | 8318 ft | 240 kts | 303° |
| 2026-05-04 10:00 | 41.07240 | 14.68809 | 7184 ft | 235 kts | 238° |
| 2026-05-04 10:00 | 41.06379 | 14.66988 | 7036 ft | 230 kts | 238° |
| 2026-05-04 10:02 | 41.01032 | 14.55485 | 5079 ft | 194 kts | 238° |
| 2026-05-04 10:04 | 40.96455 | 14.45745 | 3241 ft | 159 kts | 238° |
| 2026-05-04 10:04 | 40.95875 | 14.44514 | 3017 ft | 155 kts | 238° |
| 2026-05-04 10:04 | 40.95323 | 14.43340 | 2798 ft | 147 kts | 238° |
| 2026-05-04 10:04 | 40.94790 | 14.42208 | 2572 ft | 143 kts | 238° |
| 2026-05-04 10:05 | 40.94269 | 14.41101 | 2360 ft | 140 kts | 237° |
| 2026-05-04 10:05 | 40.93757 | 14.40014 | 2157 ft | 138 kts | 237° |
| 2026-05-04 10:05 | 40.93248 | 14.38934 | 1957 ft | 138 kts | 237° |
| 2026-05-04 10:05 | 40.92746 | 14.37867 | 1757 ft | 138 kts | 237° |
| 2026-05-04 10:06 | 40.92241 | 14.36795 | 1553 ft | 137 kts | 237° |
| 2026-05-04 10:06 | 40.91746 | 14.35725 | 1351 ft | 136 kts | 238° |
| 2026-05-04 10:06 | 40.91266 | 14.34656 | 1148 ft | 135 kts | 236° |
| 2026-05-04 10:08 | 40.88460 | 14.28785 | 303 ft | 62 kts | 238° |
| 2026-05-04 10:08 | 40.88310 | 14.28464 | 302 ft | 34 kts | 237° |
| 2026-05-04 10:08 | 40.88206 | 14.28236 | 302 ft | 24 kts | 238° |
| 2026-05-04 10:08 | 40.88136 | 14.28089 | 302 ft | 14 kts | 237° |
| 2026-05-04 10:09 | 40.88076 | 14.28069 | 302 ft | 9 kts | 148° |
| 2026-05-04 10:09 | 40.88024 | 14.28111 | 302 ft | 9 kts | 148° |
| 2026-05-04 10:09 | 40.87974 | 14.28151 | 302 ft | 8 kts | 150° |
| 2026-05-04 10:09 | 40.87925 | 14.28188 | 302 ft | 8 kts | 150° |
| 2026-05-04 10:10 | 40.87878 | 14.28222 | 302 ft | 6 kts | 169° |
| 2026-05-04 10:10 | 40.87874 | 14.28223 | 302 ft | 0 kts | 174° |
| 2026-05-04 10:11 | 40.87873 | 14.28223 | 302 ft | 0 kts | 174° |